METAR Data
IDs: Format: Raw Decoded Include TAF

Data at: 0308 UTC 15 Aug 2020

PAIN 150256Z AUTO 36006KT 10SM FEW060 OVC070 17/06 A2994 RMK AO2 SLP158 T01720056 56007